Fai una donazione per la manutenzione ed il rinnovamento della strumentazione meteorologica e per il sito che la ospita.


Webcam more information Webcam



altri nostri siti meteo:

Previsioni audio clicca per ascoltarePrevisioni audio

RISCHIO INCENDIRischio incendi

PomeziameteoSito sul meteo

MeteopomeziaSito sul meteo

Pomeziameteo DashboardSito sul meteo

Caput FrigorisSito sul meteo

BarcellonameteoSito sul meteo

MeteoipassiSito sul meteo

TortoretometeolidoSito sul meteo

CastelnuovovomanometeoSito sul meteo

MeteogonzagaSito sul meteo

MeteonetworkInvio dai a Meteonetwork

Weather UndergroundInvio dai a Weather Underground

Scarica App android ViterbometeoInvio dai a Weather Underground



Vento Inizio validita dal: 25-07-2021 08:00 Fino: 26-07-2021 00:59 Allerta per: Vento Livello: Arancione info button

Report METAR

   
LIRV - Viterbo (it-Mil), Italy
Distanza dalla stazione: W 4 km
Dati ricevuti: 25-07-2021 18:55
Poche nuvole  
Poche nuvole  
   Vento: S 25.9 km/h
Vento: S 25.9 km/h
Temperatura: 28°C
P.to Rugiada: 11°C
Umidita: 35%
Barometro: 1012 hPa
Nuvole: Poche nuvole
Visibilita: oltre 10 km
dettagli cloud: Poche nuvole 914.4 m
LIRV 251655Z 21014KT 9999 FEW030TCU 28/11 Q1012
LIQN - Rieti, Italy
Distanza dalla stazione: E 59 km
Dati ricevuti: 25-07-2021 18:50
Sereno  
Sereno  
   Vento: S 7.4 km/h
Vento: S 7.4 km/h
Temperatura: 31°C
P.to Rugiada: 12°C
Umidita: 31%
Barometro: 1013 hPa
Visibilita: oltre 10 km
dettagli cloud: Sereno
LIQN 251650Z 16004KT 110V200 CAVOK 31/12 Q1013
LIRU - Rome/Urbe (it-Af, Italy
Distanza dalla stazione: S 61 km
Dati ricevuti: 25-07-2021 19:26
Parzialmente nuvoloso  
Parzialmente nuvoloso  
   Vento: Sud 20.4 km/h
Vento: Sud 20.4 km/h
Temperatura: 31°C
P.to Rugiada: 9°C
Umidita: 25%
Barometro: 1012 hPa
Nuvole: Parzialmente nuvoloso
Visibilita: oltre 10 km
dettagli cloud: Parzialmente nuvoloso 1219.2 m
LIRU 251726Z 17011KT 9999 SCT040 31/09 Q1012 RERA
LIRG - Guidonia (it-Afb, Italy
Distanza dalla stazione: SE 68 km
Dati ricevuti: 23-07-2021 19:55
DATI Obsoleti
Sereno  
Sereno  
   Vento: SW 13 km/h
Vento: SW 13 km/h
Temperatura: 31°C
P.to Rugiada: 14°C
Umidita: 35%
Barometro: 1013 hPa
Visibilita: oltre 10 km
dettagli cloud: Sereno
LIRG 231755Z 23007KT CAVOK 31/14 Q1013
LIRK - Terminillo Mount, Italy
Distanza dalla stazione: E 70 km
Dati ricevuti: 25-07-2021 18:55
  
  
   Vento: Oriente 7.4 km/h<br />Gust to 7.4 km/h
Vento: Oriente 7.4 km/h
Gust to 7.4 km/h
Temperatura: 19°C
P.to Rugiada: 6°C
Umidita: 43%
Barometro: 1024 hPa
LIRK 251655Z AUTO 10004G15KT //// 19/06 Q1024
 

Script sviluppato da  Saratoga-weather.org Adattato per il modello da  Weerstation Leuven

Strumentazione usata:

Stazione meteo
Davis VP2

Programma gestore dati meteo
WVIEW

Server per i dati meteo
WDS-5

Davis VP2

WVIEW

WDS-5